sensor_id;sensor_type;location;lat;lon;timestamp;temperature;humidity
64670;DHT22;51080;51.690;5.174;2022-09-03T00:03:58;18.60;41.70
64670;DHT22;51080;51.690;5.174;2022-09-03T00:09:54;18.50;42.00
64670;DHT22;51080;51.690;5.174;2022-09-03T00:15:43;18.40;42.10
64670;DHT22;51080;51.690;5.174;2022-09-03T00:21:44;18.40;41.90
64670;DHT22;51080;51.690;5.174;2022-09-03T00:27:36;18.30;42.20
64670;DHT22;51080;51.690;5.174;2022-09-03T00:33:28;18.30;42.50
64670;DHT22;51080;51.690;5.174;2022-09-03T00:39:21;18.20;42.70
64670;DHT22;51080;51.690;5.174;2022-09-03T01:04:27;18.10;43.00
64670;DHT22;51080;51.690;5.174;2022-09-03T01:10:43;18.00;43.00
64670;DHT22;51080;51.690;5.174;2022-09-03T01:29:11;17.80;43.70
64670;DHT22;51080;51.690;5.174;2022-09-03T01:47:32;17.50;44.40
64670;DHT22;51080;51.690;5.174;2022-09-03T01:53:44;17.40;44.40
64670;DHT22;51080;51.690;5.174;2022-09-03T01:59:34;17.30;44.40
64670;DHT22;51080;51.690;5.174;2022-09-03T02:05:26;17.30;44.50
64670;DHT22;51080;51.690;5.174;2022-09-03T02:11:12;17.20;44.70
64670;DHT22;51080;51.690;5.174;2022-09-03T02:17:00;17.20;44.50
64670;DHT22;51080;51.690;5.174;2022-09-03T02:22:49;17.20;44.70
64670;DHT22;51080;51.690;5.174;2022-09-03T02:28:37;17.10;44.80
64670;DHT22;51080;51.690;5.174;2022-09-03T02:34:24;17.10;45.00
64670;DHT22;51080;51.690;5.174;2022-09-03T02:40:11;17.00;45.00
64670;DHT22;51080;51.690;5.174;2022-09-03T02:46:01;17.00;45.20
64670;DHT22;51080;51.690;5.174;2022-09-03T02:51:50;16.90;45.30
64670;DHT22;51080;51.690;5.174;2022-09-03T02:57:36;16.90;45.10
64670;DHT22;51080;51.690;5.174;2022-09-03T03:03:23;16.90;45.20
64670;DHT22;51080;51.690;5.174;2022-09-03T03:09:11;16.80;45.70
64670;DHT22;51080;51.690;5.174;2022-09-03T03:14:59;16.80;45.60
64670;DHT22;51080;51.690;5.174;2022-09-03T03:20:46;16.80;45.60
64670;DHT22;51080;51.690;5.174;2022-09-03T03:26:33;16.80;45.70
64670;DHT22;51080;51.690;5.174;2022-09-03T03:32:20;16.80;45.70
64670;DHT22;51080;51.690;5.174;2022-09-03T03:38:09;16.70;45.70
64670;DHT22;51080;51.690;5.174;2022-09-03T03:43:59;16.60;45.80
64670;DHT22;51080;51.690;5.174;2022-09-03T03:49:47;16.60;46.00
64670;DHT22;51080;51.690;5.174;2022-09-03T03:55:34;16.50;45.90
64670;DHT22;51080;51.690;5.174;2022-09-03T04:01:24;16.50;46.10
64670;DHT22;51080;51.690;5.174;2022-09-03T04:07:12;16.40;46.40
64670;DHT22;51080;51.690;5.174;2022-09-03T04:13:00;16.30;46.30
64670;DHT22;51080;51.690;5.174;2022-09-03T04:18:48;16.20;46.60
64670;DHT22;51080;51.690;5.174;2022-09-03T04:24:36;16.20;46.70
64670;DHT22;51080;51.690;5.174;2022-09-03T04:30:21;16.20;46.90
64670;DHT22;51080;51.690;5.174;2022-09-03T04:36:10;16.10;47.10
64670;DHT22;51080;51.690;5.174;2022-09-03T04:42:26;16.10;46.90
64670;DHT22;51080;51.690;5.174;2022-09-03T04:48:09;16.00;46.10
64670;DHT22;51080;51.690;5.174;2022-09-03T04:54:23;16.00;47.00
64670;DHT22;51080;51.690;5.174;2022-09-03T05:00:10;15.90;46.00
64670;DHT22;51080;51.690;5.174;2022-09-03T05:05:54;15.90;47.30
64670;DHT22;51080;51.690;5.174;2022-09-03T05:11:39;15.90;47.50
64670;DHT22;51080;51.690;5.174;2022-09-03T05:17:27;15.80;47.60
64670;DHT22;51080;51.690;5.174;2022-09-03T05:23:14;15.80;48.10
64670;DHT22;51080;51.690;5.174;2022-09-03T05:29:06;15.70;48.10
64670;DHT22;51080;51.690;5.174;2022-09-03T05:34:54;15.70;48.20
64670;DHT22;51080;51.690;5.174;2022-09-03T05:40:40;15.80;48.30
64670;DHT22;51080;51.690;5.174;2022-09-03T05:46:29;15.80;48.10
64670;DHT22;51080;51.690;5.174;2022-09-03T05:52:16;15.80;48.20
64670;DHT22;51080;51.690;5.174;2022-09-03T05:58:00;15.90;48.20
64670;DHT22;51080;51.690;5.174;2022-09-03T06:03:47;16.00;48.30
64670;DHT22;51080;51.690;5.174;2022-09-03T06:09:34;16.00;48.30
64670;DHT22;51080;51.690;5.174;2022-09-03T06:15:21;16.00;48.50
64670;DHT22;51080;51.690;5.174;2022-09-03T06:21:36;16.10;48.60
64670;DHT22;51080;51.690;5.174;2022-09-03T06:27:21;16.10;47.50
64670;DHT22;51080;51.690;5.174;2022-09-03T06:33:05;16.20;48.90
64670;DHT22;51080;51.690;5.174;2022-09-03T06:38:52;16.30;48.80
64670;DHT22;51080;51.690;5.174;2022-09-03T06:44:36;16.50;48.40
64670;DHT22;51080;51.690;5.174;2022-09-03T06:50:58;16.70;48.40
64670;DHT22;51080;51.690;5.174;2022-09-03T06:56:44;17.00;48.40
64670;DHT22;51080;51.690;5.174;2022-09-03T07:02:59;17.20;47.90
64670;DHT22;51080;51.690;5.174;2022-09-03T07:08:48;17.50;47.00
64670;DHT22;51080;51.690;5.174;2022-09-03T07:14:36;17.80;47.00
64670;DHT22;51080;51.690;5.174;2022-09-03T07:20:25;18.10;46.70
64670;DHT22;51080;51.690;5.174;2022-09-03T07:26:17;18.40;46.70
64670;DHT22;51080;51.690;5.174;2022-09-03T07:32:05;18.80;46.40
64670;DHT22;51080;51.690;5.174;2022-09-03T07:37:53;19.10;45.80
64670;DHT22;51080;51.690;5.174;2022-09-03T07:43:44;19.50;45.70
64670;DHT22;51080;51.690;5.174;2022-09-03T07:49:31;19.90;45.30
64670;DHT22;51080;51.690;5.174;2022-09-03T07:55:22;20.20;44.70
64670;DHT22;51080;51.690;5.174;2022-09-03T08:01:10;20.40;44.80
64670;DHT22;51080;51.690;5.174;2022-09-03T08:06:59;20.50;44.50
64670;DHT22;51080;51.690;5.174;2022-09-03T08:12:42;20.40;44.80
64670;DHT22;51080;51.690;5.174;2022-09-03T08:18:26;20.30;45.20
64670;DHT22;51080;51.690;5.174;2022-09-03T08:24:11;20.20;45.00
64670;DHT22;51080;51.690;5.174;2022-09-03T08:29:55;20.20;45.30
64670;DHT22;51080;51.690;5.174;2022-09-03T08:35:39;20.30;45.40
64670;DHT22;51080;51.690;5.174;2022-09-03T08:53:53;21.10;44.50
64670;DHT22;51080;51.690;5.174;2022-09-03T08:59:38;21.50;44.00
64670;DHT22;51080;51.690;5.174;2022-09-03T09:05:36;22.00;44.00
64670;DHT22;51080;51.690;5.174;2022-09-03T09:11:31;23.30;42.80
64670;DHT22;51080;51.690;5.174;2022-09-03T09:23:34;29.00;35.50
64670;DHT22;51080;51.690;5.174;2022-09-03T09:29:21;31.20;33.60
64670;DHT22;51080;51.690;5.174;2022-09-03T09:35:10;33.10;31.80
64670;DHT22;51080;51.690;5.174;2022-09-03T09:40:55;34.30;30.60
64670;DHT22;51080;51.690;5.174;2022-09-03T09:46:39;35.10;30.00
64670;DHT22;51080;51.690;5.174;2022-09-03T09:52:25;36.00;28.10
64670;DHT22;51080;51.690;5.174;2022-09-03T09:58:09;36.60;29.00
64670;DHT22;51080;51.690;5.174;2022-09-03T10:03:56;37.30;28.00
64670;DHT22;51080;51.690;5.174;2022-09-03T10:09:44;38.10;27.80
64670;DHT22;51080;51.690;5.174;2022-09-03T10:15:55;38.60;26.90
64670;DHT22;51080;51.690;5.174;2022-09-03T10:21:57;39.00;26.20
64670;DHT22;51080;51.690;5.174;2022-09-03T10:27:52;39.50;26.40
64670;DHT22;51080;51.690;5.174;2022-09-03T10:34:03;40.00;25.80
64670;DHT22;51080;51.690;5.174;2022-09-03T10:40:24;40.30;25.10
64670;DHT22;51080;51.690;5.174;2022-09-03T10:53:10;40.90;24.50
64670;DHT22;51080;51.690;5.174;2022-09-03T11:05:20;41.30;24.50
64670;DHT22;51080;51.690;5.174;2022-09-03T11:11:34;42.00;24.00
64670;DHT22;51080;51.690;5.174;2022-09-03T11:17:53;42.30;23.70
64670;DHT22;51080;51.690;5.174;2022-09-03T11:24:13;42.00;23.70
64670;DHT22;51080;51.690;5.174;2022-09-03T11:30:32;42.30;23.20
64670;DHT22;51080;51.690;5.174;2022-09-03T11:36:37;42.40;23.50
64670;DHT22;51080;51.690;5.174;2022-09-03T11:42:41;42.60;23.00
64670;DHT22;51080;51.690;5.174;2022-09-03T11:48:47;43.10;22.80
64670;DHT22;51080;51.690;5.174;2022-09-03T11:54:52;43.40;22.20
64670;DHT22;51080;51.690;5.174;2022-09-03T12:00:57;43.70;22.30
64670;DHT22;51080;51.690;5.174;2022-09-03T12:13:45;43.60;21.70
64670;DHT22;51080;51.690;5.174;2022-09-03T12:19:57;43.60;22.40
64670;DHT22;51080;51.690;5.174;2022-09-03T12:26:06;43.40;21.40
64670;DHT22;51080;51.690;5.174;2022-09-03T12:32:12;42.80;22.00
64670;DHT22;51080;51.690;5.174;2022-09-03T12:38:24;42.90;21.80
64670;DHT22;51080;51.690;5.174;2022-09-03T12:44:38;42.80;21.80
64670;DHT22;51080;51.690;5.174;2022-09-03T12:50:43;42.50;22.00
64670;DHT22;51080;51.690;5.174;2022-09-03T12:56:53;42.10;22.00
64670;DHT22;51080;51.690;5.174;2022-09-03T13:03:06;41.20;22.30
64670;DHT22;51080;51.690;5.174;2022-09-03T13:15:16;40.20;22.90
64670;DHT22;51080;51.690;5.174;2022-09-03T13:28:06;39.10;23.60
64670;DHT22;51080;51.690;5.174;2022-09-03T13:34:25;38.90;23.70
64670;DHT22;51080;51.690;5.174;2022-09-03T13:40:51;39.00;23.80
64670;DHT22;51080;51.690;5.174;2022-09-03T13:53:35;38.90;23.60
64670;DHT22;51080;51.690;5.174;2022-09-03T13:59:59;38.30;23.60
64670;DHT22;51080;51.690;5.174;2022-09-03T14:12:41;36.10;25.50
64670;DHT22;51080;51.690;5.174;2022-09-03T14:19:09;35.20;25.90
64670;DHT22;51080;51.690;5.174;2022-09-03T14:25:19;34.90;25.80
64670;DHT22;51080;51.690;5.174;2022-09-03T14:31:55;34.40;25.90
64670;DHT22;51080;51.690;5.174;2022-09-03T14:44:55;34.30;26.40
64670;DHT22;51080;51.690;5.174;2022-09-03T14:51:22;35.50;25.60
64670;DHT22;51080;51.690;5.174;2022-09-03T15:10:46;37.30;24.30
64670;DHT22;51080;51.690;5.174;2022-09-03T15:23:46;37.50;24.30
64670;DHT22;51080;51.690;5.174;2022-09-03T15:29:56;37.70;24.10
64670;DHT22;51080;51.690;5.174;2022-09-03T15:36:24;38.00;24.00
64670;DHT22;51080;51.690;5.174;2022-09-03T15:42:29;38.10;23.60
64670;DHT22;51080;51.690;5.174;2022-09-03T15:55:12;38.40;23.80
64670;DHT22;51080;51.690;5.174;2022-09-03T16:01:56;38.30;23.50
64670;DHT22;51080;51.690;5.174;2022-09-03T16:08:25;38.30;23.70
64670;DHT22;51080;51.690;5.174;2022-09-03T16:14:38;38.20;23.60
64670;DHT22;51080;51.690;5.174;2022-09-03T16:20:55;38.00;23.40
64670;DHT22;51080;51.690;5.174;2022-09-03T16:27:19;37.50;23.90
64670;DHT22;51080;51.690;5.174;2022-09-03T16:46:45;35.50;25.10
64670;DHT22;51080;51.690;5.174;2022-09-03T16:53:03;34.50;25.40
64670;DHT22;51080;51.690;5.174;2022-09-03T17:05:38;33.20;26.70
64670;DHT22;51080;51.690;5.174;2022-09-03T17:26:09;31.70;28.10
64670;DHT22;51080;51.690;5.174;2022-09-03T17:38:28;30.80;29.80
64670;DHT22;51080;51.690;5.174;2022-09-03T17:44:49;30.30;30.50
64670;DHT22;51080;51.690;5.174;2022-09-03T17:50:46;29.70;31.80
64670;DHT22;51080;51.690;5.174;2022-09-03T17:56:45;29.30;31.90
64670;DHT22;51080;51.690;5.174;2022-09-03T18:03:11;28.90;32.50
64670;DHT22;51080;51.690;5.174;2022-09-03T18:09:34;28.40;34.00
64670;DHT22;51080;51.690;5.174;2022-09-03T18:15:44;28.00;35.70
64670;DHT22;51080;51.690;5.174;2022-09-03T18:21:35;27.60;36.30
64670;DHT22;51080;51.690;5.174;2022-09-03T18:27:47;26.80;43.90
64670;DHT22;51080;51.690;5.174;2022-09-03T18:33:54;25.90;47.10
64670;DHT22;51080;51.690;5.174;2022-09-03T18:46:10;25.00;44.90
64670;DHT22;51080;51.690;5.174;2022-09-03T18:52:22;24.70;46.30
64670;DHT22;51080;51.690;5.174;2022-09-03T18:58:41;24.40;43.90
64670;DHT22;51080;51.690;5.174;2022-09-03T19:11:29;23.90;44.80
64670;DHT22;51080;51.690;5.174;2022-09-03T19:17:24;23.70;45.70
64670;DHT22;51080;51.690;5.174;2022-09-03T19:23:09;23.60;44.40
64670;DHT22;51080;51.690;5.174;2022-09-03T19:29:01;23.50;44.90
64670;DHT22;51080;51.690;5.174;2022-09-03T19:35:09;23.30;45.50
64670;DHT22;51080;51.690;5.174;2022-09-03T19:41:14;23.10;45.60
64670;DHT22;51080;51.690;5.174;2022-09-03T19:46:58;23.00;45.00
64670;DHT22;51080;51.690;5.174;2022-09-03T19:58:54;22.70;45.70
64670;DHT22;51080;51.690;5.174;2022-09-03T20:04:58;22.70;45.80
64670;DHT22;51080;51.690;5.174;2022-09-03T20:10:50;22.50;46.50
64670;DHT22;51080;51.690;5.174;2022-09-03T20:16:58;22.40;46.40
64670;DHT22;51080;51.690;5.174;2022-09-03T20:41:54;22.00;47.20
64670;DHT22;51080;51.690;5.174;2022-09-03T20:54:12;21.90;46.40
64670;DHT22;51080;51.690;5.174;2022-09-03T21:00:08;21.90;48.20
64670;DHT22;51080;51.690;5.174;2022-09-03T21:06:01;21.90;47.60
64670;DHT22;51080;51.690;5.174;2022-09-03T21:12:02;21.90;48.40
64670;DHT22;51080;51.690;5.174;2022-09-03T21:18:17;21.90;48.60
64670;DHT22;51080;51.690;5.174;2022-09-03T21:24:07;21.90;48.80
64670;DHT22;51080;51.690;5.174;2022-09-03T21:30:05;21.90;49.20
64670;DHT22;51080;51.690;5.174;2022-09-03T21:36:09;21.90;48.70
64670;DHT22;51080;51.690;5.174;2022-09-03T21:42:12;21.90;48.70
64670;DHT22;51080;51.690;5.174;2022-09-03T21:54:27;21.80;49.30
64670;DHT22;51080;51.690;5.174;2022-09-03T22:00:27;21.70;49.80
64670;DHT22;51080;51.690;5.174;2022-09-03T22:06:17;21.60;50.20
64670;DHT22;51080;51.690;5.174;2022-09-03T22:12:13;21.50;50.50
64670;DHT22;51080;51.690;5.174;2022-09-03T22:18:19;21.40;50.70
64670;DHT22;51080;51.690;5.174;2022-09-03T22:24:12;21.30;50.80
64670;DHT22;51080;51.690;5.174;2022-09-03T22:30:17;21.10;51.10
64670;DHT22;51080;51.690;5.174;2022-09-03T22:36:15;21.00;50.90
64670;DHT22;51080;51.690;5.174;2022-09-03T22:54:35;20.60;50.80
64670;DHT22;51080;51.690;5.174;2022-09-03T23:00:24;20.40;51.80
64670;DHT22;51080;51.690;5.174;2022-09-03T23:06:15;20.40;51.80
64670;DHT22;51080;51.690;5.174;2022-09-03T23:12:09;20.30;52.00
64670;DHT22;51080;51.690;5.174;2022-09-03T23:18:10;20.20;52.10
64670;DHT22;51080;51.690;5.174;2022-09-03T23:24:10;20.10;52.40
64670;DHT22;51080;51.690;5.174;2022-09-03T23:29:59;20.00;52.70
64670;DHT22;51080;51.690;5.174;2022-09-03T23:35:56;19.90;52.60
64670;DHT22;51080;51.690;5.174;2022-09-03T23:54:03;19.70;53.70
